Time;durP1;ratioP1;P1;durP2;ratioP2;P2;SDS_P1;SDS_P2;PMS_P1;PMS_P2;Temp;Humidity;BMP_temperature;BMP_pressure;BME280_temperature;BME280_humidity;BME280_pressure;Samples;Min_cycle;Max_cycle;Signal;HPM_P1;HPM_P2
2021/03/27 00:01:04;;;;;;;11.10;2.50;;;9.70;99.90;;;;;;5001099;28;20540;-79
2021/03/27 00:03:40;;;;;;;4.70;2.53;;;9.30;99.90;;;;;;4993256;28;20429;-80
2021/03/27 00:06:36;;;;;;;7.90;2.10;;;8.90;99.90;;;;;;4985958;28;20777;-79
2021/03/27 00:09:15;;;;;;;8.00;2.17;;;8.70;99.90;;;;;;4993773;28;20453;-79
2021/03/27 00:12:06;;;;;;;8.27;2.00;;;8.60;99.90;;;;;;4984481;28;20448;-78
2021/03/27 00:15:04;;;;;;;2.87;1.60;;;8.40;99.90;;;;;;4977485;28;20441;-79
2021/03/27 00:17:46;;;;;;;2.90;1.60;;;8.40;99.90;;;;;;4961805;28;20463;-79
2021/03/27 00:20:24;;;;;;;1.80;1.53;;;8.40;99.90;;;;;;4993920;28;20461;-77
2021/03/27 00:22:54;;;;;;;4.40;1.73;;;8.50;99.90;;;;;;4976644;28;20429;-79
2021/03/27 00:25:32;;;;;;;3.13;1.60;;;8.50;99.90;;;;;;4979324;28;20776;-79
2021/03/27 00:28:06;;;;;;;6.33;2.17;;;8.60;99.90;;;;;;4977516;28;20462;-79
2021/03/27 00:30:53;;;;;;;3.00;2.20;;;8.40;99.90;;;;;;5007625;28;20439;-78
2021/03/27 00:33:27;;;;;;;2.57;2.30;;;8.40;99.90;;;;;;4991252;28;20427;-79
2021/03/27 00:35:57;;;;;;;2.10;2.00;;;8.40;99.90;;;;;;4983028;28;20588;-79
2021/03/27 00:38:29;;;;;;;2.10;1.90;;;8.40;99.90;;;;;;4978834;28;20531;-79
2021/03/27 00:40:56;;;;;;;2.13;2.03;;;8.20;99.90;;;;;;4986252;28;20540;-78
2021/03/27 00:43:34;;;;;;;2.20;2.00;;;8.00;99.90;;;;;;4985980;28;20444;-78
2021/03/27 00:46:04;;;;;;;2.60;2.03;;;8.00;99.90;;;;;;4979597;28;20420;-79
2021/03/27 00:48:37;;;;;;;2.00;1.80;;;7.90;99.90;;;;;;4979107;28;20440;-78
2021/03/27 00:51:16;;;;;;;1.80;1.57;;;7.80;99.90;;;;;;4988518;28;20448;-78
2021/03/27 00:54:00;;;;;;;2.03;1.83;;;7.80;99.90;;;;;;4977932;28;20424;-78
2021/03/27 00:56:33;;;;;;;1.77;1.67;;;7.80;99.90;;;;;;4989817;28;20972;-78
2021/03/27 00:59:00;;;;;;;1.90;1.80;;;7.80;99.90;;;;;;5013765;28;20460;-78
2021/03/27 01:01:29;;;;;;;2.53;1.50;;;7.60;99.90;;;;;;4981912;28;20437;-79
2021/03/27 01:03:58;;;;;;;1.50;1.40;;;7.40;99.90;;;;;;4980245;28;20459;-77
2021/03/27 01:06:56;;;;;;;3.23;1.87;;;7.50;99.90;;;;;;4977752;28;20436;-79
2021/03/27 01:09:46;;;;;;;2.00;1.63;;;7.30;99.90;;;;;;4987738;28;20471;-79
2021/03/27 01:12:19;;;;;;;2.40;1.33;;;7.30;99.90;;;;;;4988633;28;20448;-79
2021/03/27 01:14:49;;;;;;;2.67;1.50;;;7.30;99.90;;;;;;4985601;28;20467;-78
2021/03/27 01:17:19;;;;;;;3.37;1.63;;;7.20;99.90;;;;;;4987850;28;20877;-79
2021/03/27 01:19:51;;;;;;;3.47;1.40;;;7.20;99.90;;;;;;4987868;28;20486;-78
2021/03/27 01:22:18;;;;;;;2.63;1.60;;;7.20;99.90;;;;;;4967404;28;20472;-78
2021/03/27 01:24:44;;;;;;;3.13;1.57;;;7.20;99.90;;;;;;4978956;28;20433;-79
2021/03/27 01:27:13;;;;;;;3.10;1.70;;;7.20;99.90;;;;;;4983148;28;20467;-78
2021/03/27 01:29:50;;;;;;;2.00;1.80;;;7.20;99.90;;;;;;5000517;28;20464;-79
2021/03/27 01:32:24;;;;;;;3.03;2.30;;;7.10;99.90;;;;;;5016712;28;20527;-78
2021/03/27 01:35:24;;;;;;;3.10;1.90;;;7.10;99.90;;;;;;4996654;28;20443;-79
2021/03/27 01:37:59;;;;;;;3.23;2.33;;;7.20;99.90;;;;;;4984738;28;20459;-78
2021/03/27 01:40:52;;;;;;;2.40;2.20;;;7.10;99.90;;;;;;4980041;28;20463;-77
2021/03/27 01:43:51;;;;;;;4.40;2.50;;;6.80;99.90;;;;;;4992192;28;20417;-78
2021/03/27 01:46:36;;;;;;;3.13;2.80;;;6.90;99.90;;;;;;4991951;28;20421;-79
2021/03/27 01:49:14;;;;;;;3.33;3.03;;;6.80;99.90;;;;;;5007672;28;20495;-77
2021/03/27 01:51:57;;;;;;;3.30;2.63;;;6.80;99.90;;;;;;4976477;28;20432;-78
2021/03/27 01:54:28;;;;;;;7.53;3.30;;;6.50;99.90;;;;;;4974011;28;20432;-78
2021/03/27 01:57:07;;;;;;;3.67;2.33;;;6.50;99.90;;;;;;4983902;28;20440;-78
2021/03/27 01:59:38;;;;;;;4.83;2.10;;;6.40;99.90;;;;;;4990914;28;20460;-78
2021/03/27 02:02:35;;;;;;;2.50;1.67;;;6.40;99.90;;;;;;4980366;28;20491;-78
2021/03/27 02:05:20;;;;;;;2.20;1.70;;;6.40;99.90;;;;;;5014864;28;20424;-78
2021/03/27 02:07:50;;;;;;;4.30;1.73;;;6.40;99.90;;;;;;4975359;28;20408;-78
2021/03/27 02:10:29;;;;;;;3.10;1.37;;;6.30;99.90;;;;;;4980362;28;20808;-78
2021/03/27 02:13:04;;;;;;;3.70;1.70;;;6.30;99.90;;;;;;5008671;28;20496;-78
2021/03/27 02:15:59;;;;;;;4.67;2.23;;;6.20;99.90;;;;;;5008555;28;20417;-78
2021/03/27 02:18:34;;;;;;;3.10;1.97;;;6.20;99.90;;;;;;4988550;28;20455;-78
2021/03/27 02:21:20;;;;;;;4.00;1.77;;;6.20;99.90;;;;;;4983718;28;20458;-78
2021/03/27 02:24:01;;;;;;;4.80;2.00;;;6.20;99.90;;;;;;4996627;28;20494;-78
2021/03/27 02:26:48;;;;;;;2.00;1.80;;;6.30;99.90;;;;;;4982589;28;20431;-77
2021/03/27 02:29:29;;;;;;;3.17;2.50;;;6.20;99.90;;;;;;4976378;28;20441;-77
2021/03/27 02:32:05;;;;;;;5.27;2.33;;;6.20;99.90;;;;;;4987037;28;20443;-78
2021/03/27 02:34:49;;;;;;;4.87;2.37;;;6.30;99.90;;;;;;4985982;28;20432;-78
2021/03/27 02:37:28;;;;;;;5.37;3.53;;;6.20;99.90;;;;;;4998975;28;20463;-78
2021/03/27 02:40:04;;;;;;;4.80;3.50;;;6.30;99.90;;;;;;4998659;28;21004;-78
2021/03/27 02:42:39;;;;;;;5.93;2.90;;;6.30;99.90;;;;;;4994330;28;20432;-78
2021/03/27 02:45:18;;;;;;;7.13;3.20;;;6.30;99.90;;;;;;4985082;28;20519;-78
2021/03/27 02:47:58;;;;;;;4.57;3.43;;;6.20;99.90;;;;;;4986489;28;20482;-78
2021/03/27 02:51:01;;;;;;;6.33;2.73;;;6.30;99.90;;;;;;4979856;28;20793;-78
2021/03/27 02:53:52;;;;;;;5.67;3.30;;;6.20;99.90;;;;;;4984344;28;20834;-77
2021/03/27 02:56:30;;;;;;;3.23;2.70;;;6.20;99.90;;;;;;4984668;28;20440;-78
2021/03/27 02:59:19;;;;;;;3.30;3.00;;;6.20;99.90;;;;;;4988510;28;20510;-77
2021/03/27 03:02:07;;;;;;;3.20;2.90;;;6.20;99.90;;;;;;5014327;28;20465;-78
2021/03/27 03:05:04;;;;;;;3.20;2.83;;;6.20;99.90;;;;;;4978970;28;20516;-78
2021/03/27 03:07:51;;;;;;;5.37;3.00;;;6.20;99.90;;;;;;4981851;28;20458;-79
2021/03/27 03:10:22;;;;;;;4.67;2.70;;;6.20;99.90;;;;;;5001660;28;20444;-78
2021/03/27 03:13:25;;;;;;;4.07;3.13;;;6.30;99.90;;;;;;4981251;28;20424;-79
2021/03/27 03:16:22;;;;;;;5.00;2.80;;;6.30;99.90;;;;;;4997458;28;20439;-78
2021/03/27 03:19:21;;;;;;;6.63;2.87;;;6.40;99.90;;;;;;4994297;28;20466;-78
2021/03/27 03:21:57;;;;;;;8.00;3.00;;;6.40;99.90;;;;;;4975725;28;20428;-79
2021/03/27 03:24:48;;;;;;;4.83;3.03;;;6.50;99.90;;;;;;5003079;28;20574;-77
2021/03/27 03:27:21;;;;;;;5.10;3.00;;;6.50;99.90;;;;;;4976147;28;20823;-79
2021/03/27 03:30:15;;;;;;;8.37;2.80;;;6.40;99.90;;;;;;4977416;28;20804;-77
2021/03/27 03:32:59;;;;;;;7.97;3.63;;;6.40;99.90;;;;;;4977770;28;20487;-78
2021/03/27 03:35:49;;;;;;;4.13;2.83;;;6.50;99.90;;;;;;5002168;28;20424;-78
2021/03/27 03:38:14;;;;;;;5.80;2.97;;;6.50;99.90;;;;;;4990910;28;20498;-78
2021/03/27 03:41:05;;;;;;;3.43;3.13;;;6.60;99.90;;;;;;4994664;28;20460;-78
2021/03/27 03:44:01;;;;;;;7.33;3.30;;;6.60;99.90;;;;;;5001152;28;20184;-78
2021/03/27 03:46:31;;;;;;;8.37;3.17;;;6.60;99.90;;;;;;4977111;28;20459;-78
2021/03/27 03:49:12;;;;;;;4.70;2.57;;;6.60;99.90;;;;;;4976778;28;20456;-78
2021/03/27 03:51:53;;;;;;;5.83;2.83;;;6.60;99.90;;;;;;4989862;28;20437;-79
2021/03/27 03:54:50;;;;;;;13.57;4.30;;;6.70;99.90;;;;;;4985167;28;20523;-78
2021/03/27 03:57:30;;;;;;;11.07;3.47;;;6.70;99.90;;;;;;4989113;28;20960;-77
2021/03/27 04:00:18;;;;;;;5.10;2.70;;;6.60;99.90;;;;;;5017332;28;20548;-78
2021/03/27 04:03:13;;;;;;;3.00;2.30;;;6.70;99.90;;;;;;4992898;28;20429;-78
2021/03/27 04:05:51;;;;;;;6.77;3.20;;;6.60;99.90;;;;;;4995028;28;20443;-79
2021/03/27 04:08:27;;;;;;;8.17;2.90;;;6.60;99.90;;;;;;4983690;28;20520;-80
2021/03/27 04:11:02;;;;;;;7.00;2.77;;;6.70;99.90;;;;;;4997292;28;20479;-80
2021/03/27 04:13:45;;;;;;;11.50;2.90;;;6.60;99.90;;;;;;4999391;28;20474;-79
2021/03/27 04:16:15;;;;;;;13.17;2.60;;;6.60;99.90;;;;;;5003003;28;20420;-79
2021/03/27 04:19:09;;;;;;;10.23;3.23;;;6.50;99.90;;;;;;4982304;28;21110;-79
2021/03/27 04:21:58;;;;;;;8.33;2.87;;;6.60;99.90;;;;;;4977975;28;20417;-79
2021/03/27 04:24:37;;;;;;;8.80;2.73;;;6.50;99.90;;;;;;4985781;28;20424;-78
2021/03/27 04:27:21;;;;;;;3.73;2.13;;;6.50;99.90;;;;;;4984296;28;20429;-79
2021/03/27 04:30:11;;;;;;;10.33;2.30;;;6.40;99.90;;;;;;4976232;28;20822;-79
2021/03/27 04:32:52;;;;;;;6.90;2.27;;;6.30;99.90;;;;;;4987007;28;20435;-78
2021/03/27 04:35:46;;;;;;;9.53;6.93;;;6.20;99.90;;;;;;4987663;28;20432;-79
2021/03/27 04:38:31;;;;;;;4.27;1.70;;;6.20;99.90;;;;;;4984608;28;20431;-78
2021/03/27 04:41:17;;;;;;;5.47;1.90;;;6.20;99.90;;;;;;4984620;28;20469;-79
2021/03/27 04:43:55;;;;;;;8.50;2.80;;;6.00;99.90;;;;;;4978164;28;20492;-79
2021/03/27 04:46:34;;;;;;;2.63;1.77;;;6.00;99.90;;;;;;4974699;28;20490;-78
2021/03/27 04:49:27;;;;;;;4.50;2.53;;;5.90;99.90;;;;;;5009374;28;20544;-79
2021/03/27 04:52:16;;;;;;;3.83;2.60;;;5.90;99.90;;;;;;4977851;28;20428;-78
2021/03/27 04:54:56;;;;;;;5.87;1.90;;;5.80;99.90;;;;;;4977165;28;20427;-80
2021/03/27 04:57:29;;;;;;;8.90;2.50;;;5.80;99.90;;;;;;4980918;28;20515;-79
2021/03/27 04:59:58;;;;;;;9.60;2.93;;;5.70;99.90;;;;;;4980950;28;20470;-79
2021/03/27 05:02:45;;;;;;;8.80;2.33;;;5.70;99.90;;;;;;4980869;28;20421;-79
2021/03/27 05:05:31;;;;;;;4.00;2.30;;;5.80;99.90;;;;;;4980400;28;20424;-80
2021/03/27 05:08:01;;;;;;;8.90;3.40;;;5.80;99.90;;;;;;4980676;28;20480;-79
2021/03/27 05:10:45;;;;;;;7.50;2.20;;;5.80;99.90;;;;;;4996723;28;20492;-79
2021/03/27 05:13:17;;;;;;;13.10;2.40;;;5.80;99.90;;;;;;4995669;28;20439;-80
2021/03/27 05:15:50;;;;;;;3.83;1.83;;;5.80;99.90;;;;;;4980868;28;20425;-79
2021/03/27 05:18:35;;;;;;;3.80;2.00;;;5.80;99.90;;;;;;4979062;28;20431;-79
2021/03/27 05:21:24;;;;;;;5.50;2.03;;;5.90;99.90;;;;;;4981114;28;20464;-79
2021/03/27 05:24:09;;;;;;;15.63;2.80;;;6.00;99.90;;;;;;4983761;28;20430;-79
2021/03/27 05:26:40;;;;;;;10.90;2.33;;;6.00;99.90;;;;;;4980506;28;20405;-79
2021/03/27 05:29:12;;;;;;;6.60;2.30;;;6.00;99.90;;;;;;4980329;28;20453;-78
2021/03/27 05:32:01;;;;;;;10.10;2.73;;;6.00;99.90;;;;;;4991965;28;20405;-78
2021/03/27 05:34:47;;;;;;;6.37;2.47;;;6.10;99.90;;;;;;4977949;28;20423;-78
2021/03/27 05:37:25;;;;;;;7.87;2.90;;;6.00;99.90;;;;;;4993495;28;20416;-78
2021/03/27 05:40:29;;;;;;;5.30;2.17;;;6.10;99.90;;;;;;4976992;28;20531;-78
2021/03/27 05:43:12;;;;;;;8.30;2.17;;;6.20;99.90;;;;;;4971933;28;20869;-78
2021/03/27 05:45:38;;;;;;;6.50;2.17;;;6.20;99.90;;;;;;4992706;28;20503;-78
2021/03/27 05:48:09;;;;;;;8.33;2.23;;;6.30;99.90;;;;;;4993788;28;20524;-80
2021/03/27 05:51:12;;;;;;;3.40;2.47;;;6.30;99.90;;;;;;4982079;28;20173;-78
2021/03/27 05:54:04;;;;;;;9.60;2.33;;;6.40;99.90;;;;;;4996895;28;20420;-78
2021/03/27 05:56:41;;;;;;;5.40;2.03;;;6.40;99.90;;;;;;4983254;28;20447;-79
2021/03/27 05:59:51;;;;;;;11.43;2.90;;;6.40;99.90;;;;;;4979750;28;20463;-78
2021/03/27 06:02:46;;;;;;;10.20;3.23;;;6.40;99.90;;;;;;4976462;28;20633;-78
2021/03/27 06:05:28;;;;;;;6.63;3.13;;;6.60;99.90;;;;;;4991554;28;20428;-78
2021/03/27 06:08:29;;;;;;;10.83;3.00;;;6.60;99.90;;;;;;4991939;28;20413;-79
2021/03/27 06:11:31;;;;;;;8.30;3.17;;;6.50;99.90;;;;;;4963743;28;20428;-78
2021/03/27 06:14:15;;;;;;;7.53;2.63;;;6.60;99.90;;;;;;4977668;28;20420;-78
2021/03/27 06:17:08;;;;;;;7.37;1.90;;;7.00;99.90;;;;;;4976638;28;20930;-78
2021/03/27 06:19:57;;;;;;;10.07;2.30;;;7.10;99.90;;;;;;4975758;28;20452;-78
2021/03/27 06:22:23;;;;;;;10.60;2.43;;;7.30;99.90;;;;;;4990009;28;20517;-78
2021/03/27 06:25:19;;;;;;;11.60;2.73;;;7.30;99.90;;;;;;4991762;28;20511;-79
2021/03/27 06:28:09;;;;;;;5.30;2.80;;;7.40;99.90;;;;;;4994011;28;20201;-79
2021/03/27 06:31:07;;;;;;;6.70;2.73;;;7.30;99.90;;;;;;4974596;28;20842;-79
2021/03/27 06:34:26;;;;;;;7.30;3.40;;;7.30;99.90;;;;;;4991125;28;20436;-79
2021/03/27 06:37:21;;;;;;;11.70;3.50;;;7.10;99.90;;;;;;4935811;29;20437;-78
2021/03/27 06:40:15;;;;;;;3.40;2.60;;;6.90;99.90;;;;;;5002319;28;20460;-78
2021/03/27 06:43:00;;;;;;;5.73;2.33;;;6.70;99.90;;;;;;4968208;28;20508;-77
2021/03/27 06:45:52;;;;;;;4.30;2.10;;;5.90;99.90;;;;;;4972776;28;20420;-76
2021/03/27 06:48:55;;;;;;;2.77;2.03;;;5.80;99.90;;;;;;4973364;28;20425;-76
2021/03/27 06:51:41;;;;;;;3.80;1.27;;;5.60;99.90;;;;;;4972347;28;20514;-76
2021/03/27 06:54:28;;;;;;;2.60;1.17;;;5.20;99.90;;;;;;4976387;28;20429;-76
2021/03/27 06:57:04;;;;;;;1.40;1.30;;;4.80;99.90;;;;;;4976737;28;20836;-76
2021/03/27 06:59:39;;;;;;;4.30;1.60;;;4.80;99.90;;;;;;4985438;28;20448;-77
2021/03/27 07:02:10;;;;;;;4.30;1.27;;;4.70;99.90;;;;;;5005010;28;20415;-77
2021/03/27 07:05:10;;;;;;;2.93;1.40;;;4.60;99.90;;;;;;4978441;28;20789;-77
2021/03/27 07:08:00;;;;;;;2.27;1.43;;;4.70;99.90;;;;;;4978464;28;20447;-77
2021/03/27 07:10:48;;;;;;;3.63;1.07;;;4.60;99.90;;;;;;4978702;28;20813;-78
2021/03/27 07:13:35;;;;;;;1.93;0.87;;;4.40;99.90;;;;;;4978650;28;20480;-78
2021/03/27 07:16:32;;;;;;;1.70;0.93;;;4.50;99.90;;;;;;4994198;28;20432;-77
2021/03/27 07:19:48;;;;;;;6.30;1.40;;;4.50;99.90;;;;;;4978868;28;20436;-78
2021/03/27 07:22:17;;;;;;;5.40;1.57;;;4.40;99.90;;;;;;4994675;28;20420;-78
2021/03/27 07:24:49;;;;;;;2.50;1.00;;;4.40;99.90;;;;;;4979871;28;20503;-77
2021/03/27 07:27:44;;;;;;;3.40;1.27;;;4.40;99.90;;;;;;4995762;28;20427;-78
2021/03/27 07:30:16;;;;;;;3.27;0.93;;;4.50;99.90;;;;;;4968865;28;20439;-78
2021/03/27 07:32:57;;;;;;;7.30;1.10;;;4.50;99.90;;;;;;4981105;28;20420;-78
2021/03/27 07:35:25;;;;;;;2.07;1.17;;;4.70;99.90;;;;;;4980864;28;20415;-78
2021/03/27 07:38:14;;;;;;;2.40;1.20;;;4.90;99.90;;;;;;4996573;28;20932;-78
2021/03/27 07:40:47;;;;;;;3.10;1.00;;;5.10;99.90;;;;;;4979598;28;20460;-78
2021/03/27 07:43:49;;;;;;;1.20;1.10;;;5.20;99.90;;;;;;4981008;28;20490;-77
2021/03/27 07:46:27;;;;;;;2.40;0.90;;;5.80;99.90;;;;;;4980663;28;20501;-78
2021/03/27 07:49:14;;;;;;;3.67;1.20;;;6.30;99.90;;;;;;4980388;28;20822;-78
2021/03/27 07:51:58;;;;;;;4.20;2.60;;;6.20;99.90;;;;;;4974720;28;20451;-79
2021/03/27 07:54:45;;;;;;;1.83;1.30;;;6.30;99.90;;;;;;5011556;28;20424;-78
2021/03/27 07:57:11;;;;;;;1.43;1.10;;;6.90;99.90;;;;;;4994852;28;20436;-77
2021/03/27 08:00:00;;;;;;;1.63;1.17;;;7.40;99.90;;;;;;4978498;28;20452;-79
2021/03/27 08:02:44;;;;;;;2.83;1.10;;;7.60;99.90;;;;;;5000854;28;20177;-79
2021/03/27 08:05:31;;;;;;;2.10;1.17;;;8.30;99.90;;;;;;4977224;28;20420;-79
2021/03/27 08:08:32;;;;;;;6.53;1.80;;;8.40;99.90;;;;;;4972138;28;20952;-77
2021/03/27 08:11:17;;;;;;;3.30;1.63;;;9.10;99.90;;;;;;4976365;28;20416;-78
2021/03/27 08:14:26;;;;;;;5.57;2.53;;;9.90;99.90;;;;;;4975250;28;20420;-78
2021/03/27 08:17:24;;;;;;;4.40;2.07;;;9.60;99.90;;;;;;4944624;28;20426;-78
2021/03/27 08:20:21;;;;;;;2.50;1.50;;;9.10;99.90;;;;;;4949550;28;20477;-78
2021/03/27 08:23:29;;;;;;;11.03;2.30;;;9.10;99.90;;;;;;4976041;28;20516;-78
2021/03/27 08:25:54;;;;;;;4.50;1.90;;;9.30;99.90;;;;;;4980136;28;20413;-77
2021/03/27 08:28:47;;;;;;;4.10;2.17;;;9.20;99.90;;;;;;4979025;28;20424;-78
2021/03/27 08:31:21;;;;;;;3.90;1.90;;;9.80;99.90;;;;;;4976289;28;20529;-79
2021/03/27 08:34:24;;;;;;;3.73;1.70;;;9.30;99.90;;;;;;4976688;28;20416;-78
2021/03/27 08:37:16;;;;;;;6.33;1.77;;;9.90;99.90;;;;;;4972584;28;20435;-78
2021/03/27 08:40:12;;;;;;;6.70;2.00;;;10.30;99.90;;;;;;4975808;28;20495;-78
2021/03/27 08:43:10;;;;;;;7.10;2.63;;;11.10;99.90;;;;;;5008203;28;20926;-78
2021/03/27 08:46:07;;;;;;;8.50;2.50;;;11.20;99.90;;;;;;4978455;28;20504;-77
2021/03/27 08:48:51;;;;;;;5.00;2.80;;;10.90;99.90;;;;;;4993817;28;20460;-78
2021/03/27 08:51:32;;;;;;;10.80;3.00;;;11.00;99.90;;;;;;4977556;28;20417;-79
2021/03/27 08:54:35;;;;;;;7.67;2.33;;;10.60;99.90;;;;;;4978214;28;20463;-78
2021/03/27 08:57:20;;;;;;;3.90;2.20;;;10.40;99.90;;;;;;4994993;28;20439;-79
2021/03/27 09:00:10;;;;;;;11.13;3.10;;;10.40;99.90;;;;;;4976899;28;20471;-78
2021/03/27 09:02:54;;;;;;;10.60;2.93;;;11.20;99.90;;;;;;4976008;28;20911;-78
2021/03/27 09:05:38;;;;;;;4.50;2.00;;;11.30;99.90;;;;;;4961013;28;20440;-79
2021/03/27 09:08:20;;;;;;;7.00;2.73;;;11.70;99.90;;;;;;4991861;28;20416;-78
2021/03/27 09:10:49;;;;;;;10.43;2.93;;;11.90;99.90;;;;;;4976584;28;20436;-78
2021/03/27 09:13:40;;;;;;;11.67;3.30;;;11.60;99.90;;;;;;4990210;28;20436;-79
2021/03/27 09:16:40;;;;;;;6.20;2.60;;;11.40;99.90;;;;;;4975675;28;20428;-79
2021/03/27 09:19:32;;;;;;;8.47;2.47;;;11.20;99.90;;;;;;4974493;28;20471;-78
2021/03/27 09:22:22;;;;;;;9.43;2.60;;;12.20;99.90;;;;;;4974276;28;20420;-78
2021/03/27 09:25:00;;;;;;;14.07;2.80;;;12.90;99.90;;;;;;4971017;28;20946;-79
2021/03/27 09:27:31;;;;;;;7.60;2.83;;;13.00;99.90;;;;;;4989947;28;20483;-79
2021/03/27 09:30:10;;;;;;;11.67;3.63;;;13.00;99.90;;;;;;4973849;28;20488;-78
2021/03/27 09:32:50;;;;;;;5.17;2.63;;;11.90;99.90;;;;;;4973165;28;20428;-77
2021/03/27 09:35:49;;;;;;;5.47;3.20;;;11.60;99.90;;;;;;4973875;28;20431;-76
2021/03/27 09:38:29;;;;;;;7.33;2.87;;;10.90;99.90;;;;;;4974239;28;20782;-79
2021/03/27 09:41:13;;;;;;;12.90;3.37;;;10.60;99.90;;;;;;4977729;28;20464;-79
2021/03/27 09:44:03;;;;;;;10.33;2.80;;;11.10;99.90;;;;;;4991449;28;20758;-76
2021/03/27 09:47:00;;;;;;;13.30;3.50;;;11.30;99.90;;;;;;4966103;28;20468;-75
2021/03/27 09:49:55;;;;;;;10.90;2.47;;;10.90;99.90;;;;;;4973477;28;20455;-73
2021/03/27 09:52:38;;;;;;;4.80;2.47;;;11.20;99.90;;;;;;4971281;28;20455;-75
2021/03/27 09:55:34;;;;;;;8.57;2.47;;;11.60;99.90;;;;;;4973252;28;20427;-74
2021/03/27 09:58:05;;;;;;;13.27;4.30;;;12.40;99.90;;;;;;4973106;28;20530;-75
2021/03/27 10:00:55;;;;;;;9.17;3.30;;;12.90;99.90;;;;;;4973832;28;20991;-76
2021/03/27 10:03:41;;;;;;;9.33;2.73;;;12.60;99.90;;;;;;4970255;28;20412;-75
2021/03/27 10:06:49;;;;;;;9.00;2.73;;;12.10;99.90;;;;;;4964786;28;20508;-75
2021/03/27 10:09:47;;;;;;;4.77;2.63;;;12.20;99.90;;;;;;4972749;28;20797;-75
2021/03/27 10:12:21;;;;;;;8.40;2.93;;;12.30;99.90;;;;;;4980138;28;20447;-75
2021/03/27 10:15:13;;;;;;;7.30;2.80;;;12.40;99.90;;;;;;4986818;28;20505;-76
2021/03/27 10:17:45;;;;;;;6.70;2.60;;;12.90;99.90;;;;;;4969299;28;20806;-75
2021/03/27 10:20:31;;;;;;;8.47;2.80;;;12.90;99.90;;;;;;4972613;28;20459;-75
2021/03/27 10:23:05;;;;;;;9.77;2.50;;;11.70;99.90;;;;;;4969887;28;20482;-75
2021/03/27 10:25:39;;;;;;;4.83;2.20;;;12.00;99.90;;;;;;4973451;28;20424;-75
2021/03/27 10:28:30;;;;;;;4.50;2.40;;;12.60;99.90;;;;;;4973030;28;20421;-79
2021/03/27 10:31:06;;;;;;;8.40;2.87;;;12.40;99.90;;;;;;4974393;28;20968;-79
2021/03/27 10:34:04;;;;;;;6.50;3.30;;;12.70;99.90;;;;;;4981379;28;20416;-79
2021/03/27 10:36:32;;;;;;;9.07;2.70;;;13.10;99.90;;;;;;4976277;28;20464;-79
2021/03/27 10:39:28;;;;;;;4.33;2.07;;;12.90;99.90;;;;;;4972987;28;20453;-79
2021/03/27 10:42:29;;;;;;;13.67;3.33;;;13.50;99.90;;;;;;4978221;28;20413;-79
2021/03/27 10:45:32;;;;;;;10.03;2.80;;;13.10;99.90;;;;;;4975792;28;20922;-79
2021/03/27 10:48:03;;;;;;;3.67;2.50;;;13.00;99.90;;;;;;4972328;28;20463;-78
2021/03/27 10:50:36;;;;;;;8.90;2.70;;;12.90;99.90;;;;;;4971958;28;20473;-78
2021/03/27 10:53:11;;;;;;;7.73;2.73;;;12.50;99.90;;;;;;4975045;28;20431;-79
2021/03/27 10:55:39;;;;;;;10.40;2.33;;;12.30;99.90;;;;;;4991129;28;20420;-78
2021/03/27 10:58:26;;;;;;;6.53;2.70;;;11.60;99.90;;;;;;4976089;28;20450;-78
2021/03/27 11:00:57;;;;;;;7.90;1.97;;;12.30;99.90;;;;;;4993701;28;20552;-78
2021/03/27 11:03:31;;;;;;;4.50;2.57;;;11.70;99.90;;;;;;4974861;28;20424;-80
2021/03/27 11:06:18;;;;;;;5.57;2.10;;;11.30;99.90;;;;;;4989423;28;20421;-80
2021/03/27 11:09:24;;;;;;;12.33;2.50;;;11.00;99.90;;;;;;4989372;28;20459;-78
2021/03/27 11:12:07;;;;;;;5.13;2.57;;;11.10;99.90;;;;;;4959226;28;20798;-80
2021/03/27 11:14:55;;;;;;;8.43;2.60;;;11.20;99.90;;;;;;4984492;28;20428;-79
2021/03/27 11:17:51;;;;;;;14.20;4.83;;;12.30;99.90;;;;;;4970385;28;20984;-79
2021/03/27 11:20:47;;;;;;;6.67;2.30;;;13.10;99.90;;;;;;4972226;28;20672;-78
2021/03/27 11:23:37;;;;;;;6.67;2.17;;;12.60;99.90;;;;;;4971185;28;20420;-78
2021/03/27 11:26:21;;;;;;;9.03;3.20;;;12.70;99.90;;;;;;4972648;28;20413;-78
2021/03/27 11:29:27;;;;;;;8.33;2.57;;;12.40;99.90;;;;;;4972546;28;20937;-77
2021/03/27 11:32:03;;;;;;;6.53;1.90;;;12.20;99.90;;;;;;5003787;28;20506;-78
2021/03/27 11:34:39;;;;;;;7.63;2.40;;;12.80;99.90;;;;;;5003696;28;20430;-79
2021/03/27 11:37:35;;;;;;;5.80;2.10;;;12.70;99.90;;;;;;4972482;28;20477;-78
2021/03/27 11:40:31;;;;;;;5.80;2.50;;;13.10;99.90;;;;;;4975708;28;20474;-78
2021/03/27 11:43:37;;;;;;;11.67;3.30;;;13.30;99.90;;;;;;4994043;28;20830;-78
2021/03/27 11:46:38;;;;;;;6.90;3.80;;;13.60;99.90;;;;;;4975901;28;20475;-78
2021/03/27 11:49:21;;;;;;;8.97;3.07;;;13.80;99.90;;;;;;4975786;28;20428;-79
2021/03/27 11:51:49;;;;;;;6.00;2.70;;;13.40;99.90;;;;;;4980477;28;20474;-79
2021/03/27 11:54:43;;;;;;;7.50;2.83;;;13.80;99.90;;;;;;4994304;28;20997;-79
2021/03/27 11:57:46;;;;;;;12.70;2.70;;;14.30;99.90;;;;;;4989340;28;20452;-79
2021/03/27 12:03:26;;;;;;;5.80;2.40;;;13.90;98.70;;;;;;4983841;28;20937;-80
2021/03/27 12:06:16;;;;;;;9.13;3.00;;;13.60;95.10;;;;;;4999083;28;20416;-80
2021/03/27 12:09:10;;;;;;;5.80;2.40;;;12.90;99.90;;;;;;4983734;28;20468;-79
2021/03/27 12:11:51;;;;;;;8.63;3.43;;;12.10;99.90;;;;;;5011773;28;20494;-80
2021/03/27 12:14:31;;;;;;;4.60;2.00;;;11.80;99.90;;;;;;4981551;28;20445;-79
2021/03/27 12:17:15;;;;;;;3.60;2.10;;;11.70;99.90;;;;;;4985421;28;20788;-79
2021/03/27 12:19:52;;;;;;;4.10;2.00;;;11.90;99.90;;;;;;4982119;28;20839;-78
2021/03/27 12:22:36;;;;;;;12.13;2.93;;;11.60;99.90;;;;;;4993242;28;20449;-78
2021/03/27 12:25:40;;;;;;;8.13;2.80;;;11.70;99.90;;;;;;4972498;28;20463;-79
2021/03/27 12:28:36;;;;;;;6.20;2.53;;;12.40;99.90;;;;;;5005633;28;20431;-79
2021/03/27 12:31:40;;;;;;;4.43;2.00;;;12.70;99.90;;;;;;4974576;28;20432;-79
2021/03/27 12:34:11;;;;;;;5.70;2.80;;;13.30;99.90;;;;;;4972935;28;20467;-79
2021/03/27 12:37:14;;;;;;;2.97;2.03;;;13.00;99.80;;;;;;4968988;28;20449;-78
2021/03/27 12:40:11;;;;;;;4.77;2.00;;;13.40;99.90;;;;;;4952205;28;20465;-79
2021/03/27 12:42:47;;;;;;;12.03;2.63;;;12.50;99.90;;;;;;4984941;28;20429;-78
2021/03/27 12:45:34;;;;;;;4.23;2.13;;;12.10;99.90;;;;;;4976658;28;20428;-79
2021/03/27 12:48:15;;;;;;;4.37;2.77;;;12.30;99.90;;;;;;4974912;28;20479;-80
2021/03/27 12:50:49;;;;;;;10.00;2.60;;;11.70;99.90;;;;;;4976890;28;20428;-79
2021/03/27 12:53:50;;;;;;;4.90;2.30;;;11.50;99.90;;;;;;5009167;28;20813;-80
2021/03/27 12:56:51;;;;;;;8.40;2.60;;;12.10;99.90;;;;;;4978286;28;20456;-79
2021/03/27 12:59:32;;;;;;;8.30;2.80;;;12.60;99.90;;;;;;4977696;28;20491;-79
2021/03/27 13:02:22;;;;;;;10.57;2.50;;;12.70;99.90;;;;;;4991788;28;20432;-79
2021/03/27 13:05:04;;;;;;;7.10;3.00;;;12.90;99.90;;;;;;4975668;28;20467;-79
2021/03/27 13:07:58;;;;;;;6.83;2.33;;;12.80;99.90;;;;;;4977315;28;20512;-79
2021/03/27 13:10:48;;;;;;;10.77;2.93;;;12.00;99.90;;;;;;5007498;28;20448;-80
2021/03/27 13:13:35;;;;;;;4.43;2.43;;;12.10;99.90;;;;;;4990671;28;20479;-78
2021/03/27 13:16:34;;;;;;;6.13;3.00;;;12.20;99.90;;;;;;4976551;28;20429;-79
2021/03/27 13:19:28;;;;;;;5.87;1.90;;;12.30;99.90;;;;;;4985493;28;20949;-78
2021/03/27 13:22:17;;;;;;;11.27;2.43;;;12.90;99.90;;;;;;5002473;28;20505;-78
2021/03/27 13:25:14;;;;;;;6.60;2.20;;;13.40;95.70;;;;;;4990274;28;20802;-79
2021/03/27 13:27:47;;;;;;;4.80;2.27;;;13.70;90.10;;;;;;4973992;28;20417;-79
2021/03/27 13:30:33;;;;;;;2.87;1.97;;;14.00;84.20;;;;;;4977341;28;20945;-80
2021/03/27 13:33:21;;;;;;;5.60;1.70;;;14.10;76.40;;;;;;4980905;28;20479;-79
2021/03/27 13:35:50;;;;;;;4.03;1.87;;;14.10;71.80;;;;;;4981990;28;20424;-79
2021/03/27 13:38:41;;;;;;;4.53;1.83;;;14.10;66.40;;;;;;4996317;28;20431;-79
2021/03/27 13:41:46;;;;;;;2.13;1.30;;;14.10;62.00;;;;;;4992621;28;20515;-78
2021/03/27 13:44:46;;;;;;;8.10;2.33;;;14.70;68.60;;;;;;4966965;28;20432;-78
2021/03/27 13:47:23;;;;;;;2.77;1.83;;;14.70;64.60;;;;;;4974952;28;20511;-78
2021/03/27 13:50:07;;;;;;;3.70;1.80;;;14.80;66.80;;;;;;4974721;28;20491;-78
2021/03/27 13:52:53;;;;;;;3.00;1.67;;;14.60;59.30;;;;;;4991114;28;20452;-78
2021/03/27 13:55:32;;;;;;;4.67;1.60;;;15.20;64.70;;;;;;4989812;28;20428;-79
2021/03/27 13:58:09;;;;;;;4.73;1.50;;;14.80;58.30;;;;;;4973606;28;20440;-79
2021/03/27 14:00:54;;;;;;;6.87;2.17;;;14.50;59.20;;;;;;4987041;28;20799;-80
2021/03/27 14:03:47;;;;;;;1.90;1.40;;;14.40;58.70;;;;;;4977561;28;20420;-79
2021/03/27 14:06:24;;;;;;;2.83;1.77;;;15.10;62.30;;;;;;4978311;28;20429;-80
2021/03/27 14:09:22;;;;;;;3.50;1.93;;;15.10;60.00;;;;;;4977881;28;20456;-80
2021/03/27 14:12:12;;;;;;;3.70;1.60;;;15.00;57.00;;;;;;4981393;28;20906;-79
2021/03/27 14:15:03;;;;;;;2.80;1.87;;;14.30;55.00;;;;;;4958946;28;20424;-78
2021/03/27 14:17:47;;;;;;;4.77;1.90;;;14.70;57.30;;;;;;4974427;28;20463;-80
2021/03/27 14:20:40;;;;;;;6.30;1.60;;;14.80;57.50;;;;;;4977214;28;20826;-78
2021/03/27 14:23:23;;;;;;;5.27;2.07;;;14.40;57.20;;;;;;4977470;28;20443;-79
2021/03/27 14:26:09;;;;;;;4.10;1.60;;;14.70;58.60;;;;;;4975914;28;20432;-79